Algona, Washington
Current Conditions -  °F | °C
As of 9:53 AM on Sunday 21 Dec 2014 (Local Time) from KSEA Reporting Station
Broken Clouds Broken Clouds  
Wind Chill: 51°   Ceiling: 1800
Heat Index: 51°   Visibility: 10mi
Dew Point: 46°   Wind: 5mph
Humidity: 83%   Direction: 230°SW
Pressure: 29.93"   Gusts: NA
Location:  47.31°N, 122.266°W
Report Text: KSEA 211753Z 23004KT 10SM BKN018 11/08 A2993 RMK AO2 SLP142 T01060078 10111 20106 51047
Loading
Personal Weather Stations






























Interactive Weather Map New forecast layout! Learn more

10-Day Weather Forecast

Advertisements
Track Severe Weather on mobile